Pahrump, Nevada Weather observations

Data are for observation ending at time listed.
 Day   Time    Ave.   Ave.  Ave.  Vector   Max.   Stn.    Total    Solar   Ave.  
  of    of     Air    Rel.  Wind   Wind    Wind   Baro.  Precip.   Rad.    Soil  
Year   Day     Temp.  Hum.  Speed  Dir.    Gust   Pres.                    Temp. 
2026   (PST)    F      %     mph   deg.    mph     mb.     in.     W/m2     F   
------------------------------------------------------------------------------
 127    1:50   59.1    35    1.1   187      3.7   921.3    0.00       0    76.1
 127    2:00   58.1    39    2.2   245      4.7   921.3    0.00       0    75.9
 127    2:10   58.3    38    0.8   268      3.3   921.3    0.00       0    75.8
 127    2:20   59.2    36    0.7     0      2.0   921.2    0.00       0    75.7
 127    2:30   59.8    34    0.4    83      1.4   921.3    0.00       0    75.5
 127    2:40   60.0    33    1.6   102      2.3   921.3    0.00       0    75.3
 127    2:50   60.2    33    1.5    99      2.2   921.3    0.00       0    75.2
 127    3:00   60.8    32    1.6    79      2.4   921.3    0.00       0    75.1
 127    3:10   61.2    32    1.1    80      2.0   921.3    0.00       0    74.9
 127    3:20   61.0    32    1.4    70      2.3   921.3    0.00       0    74.8
 127    3:30   60.8    34    0.9   278      2.5   921.4    0.00       0    74.6
 127    3:40   59.1    38    0.1   288      0.7   921.4    0.00       0    74.5
 127    3:50   58.7    37    0.8    33      1.7   921.3    0.00       0    74.4
 127    4:00   59.4    34    0.6    44      1.5   921.3    0.00       0    74.3
 127    4:10   59.6    34    0.4    57      1.8   921.3    0.00       0    74.2
 127    4:20   59.8    33    1.8    56      3.7   921.2    0.00       0    74.0
 127    4:30   59.7    33    1.2    57      2.6   921.2    0.00       0    73.9
 127    4:40   60.0    33    0.9    67      2.0   921.3    0.00       1    73.8
 127    4:50   60.2    33    1.0    75      1.9   921.3    0.00       4    73.7
 127    5:00   60.2    33    0.5   120      1.8   921.4    0.00       8    73.6
 127    5:10   59.4    34    0.9   122      2.3   921.4    0.00      13    73.4
 127    5:20   59.8    33    0.1   125      1.2   921.5    0.00      37    73.3
 127    5:30   62.0    31    0.5     3      2.3   921.6    0.00      70    73.2
 127    5:40   63.6    30    0.1   318      0.1   921.7    0.00      96    73.1
 127    5:50   64.6    29    0.0   338      0.1   921.9    0.00     123    73.0
 127    6:00   64.1    29    0.0   347      0.1   922.1    0.00     151    72.9
 127    6:10   64.4    30    1.0   319      2.7   922.3    0.00     181    72.8
 127    6:20   64.8    31    0.1   335      0.4   922.5    0.00     212    72.8
 127    6:30   64.4    32    0.1   355      0.1   922.7    0.00     244    72.7
 127    6:40   65.7    30    0.1   304      0.1   922.8    0.00     277    72.7
 127    6:50   66.0    30    2.8   301      6.5   922.9    0.00     311    72.6
 127    7:00   66.8    29    3.7   299      5.6   923.1    0.00     345    72.6
 127    7:10   67.5    28    1.4   295      5.6   923.2    0.00     378    72.6
 127    7:20   68.5    27    0.7   354      3.4   923.4    0.00     412    72.6
 127    7:30   69.0    27    0.1   355      0.1   923.6    0.00     446    72.6
 127    7:40   69.7    26    0.1   298      0.1   923.7    0.00     479    72.6
 127    7:50   70.3    25    0.1   275      0.1   923.8    0.00     512    72.6
 127    8:00   72.1    24    1.3   303      3.1   923.8    0.00     544    72.6
 127    8:10   73.4    23    0.8   297      2.4   923.9    0.00     576    72.6
 127    8:20   74.7    21    1.3   316      4.0   923.9    0.00     607    72.6
 127    8:30   76.0    21    1.4   302      3.9   924.0    0.00     637    72.8
 127    8:40   77.3    20    1.1   342      3.9   924.1    0.00     663    73.0
 127    8:50   78.0    19    1.9   330      3.8   924.2    0.00     694    73.3
 127    9:00   79.1    18    1.8   324      3.7   924.2    0.00     721    73.7
 127    9:10   79.2    18    1.2   249      3.4   924.3    0.00     747    74.1
 127    9:20   81.4    17    1.1   180      2.7   924.4    0.00     771    74.5
 127    9:30   81.0    17    2.1   302      5.6   924.4    0.00     794    74.8
 127    9:40   82.1    16    1.3   343      4.2   924.4    0.00     817    75.1
 127    9:50   81.8    16    2.2     6      5.3   924.5    0.00     837    75.5
 127   10:00   81.6    16    3.0   296      5.3   924.5    0.00     855    76.0
 127   10:10   82.8    15    1.9   322      6.2   924.4    0.00     872    76.5
 127   10:20   84.8    15    3.0   316      7.5   924.4    0.00     888    77.0
 127   10:30   84.1    15    2.3   350      6.9   924.5    0.00     902    77.6
 127   10:40   85.0    15    3.5   312      9.3   924.4    0.00     915    78.2
 127   10:50   84.5    14    2.6   349      7.0   924.3    0.00     928    78.9
 127   11:00   84.7    14    4.0   300      7.8   924.2    0.00     938    79.4
 127   11:10   85.3    14    1.5   340      4.9   924.1    0.00     947    80.0
 127   11:20   86.8    13    1.6     9      5.8   923.9    0.00     954    80.6
 127   11:30   87.6    13    2.9    89      7.5   923.8    0.00     957    81.1
 127   11:40   86.6    14    4.3   254     10.4   923.7    0.00     961    81.5
 127   11:50   86.6    13    3.1   294      8.8   923.6    0.00     961    81.8
 127   12:00   88.1    12    4.6   310     10.1   923.5    0.00     963    82.2
 127   12:10   88.0    12    3.1   293     11.1   923.4    0.00     961    82.5
 127   12:20   87.7    12    5.2   280     10.4   923.4    0.00     960    82.8
 127   12:30   88.4    12    4.3   284      7.8   923.3    0.00     954    83.2
 127   12:40   88.3    12    4.3   291      9.8   923.4    0.00     947    83.6
 127   12:50   88.4    11    3.7   277     10.2   923.3    0.00     939    83.9
 127   13:00   88.9    11    6.1   298     10.4   923.2    0.00     928    84.2
 127   13:10   88.3    11    4.6   282     10.2   923.2    0.00     916    84.6
 127   13:20   88.8    11    4.1   271     11.6   922.9    0.00     904    84.9
 127   13:30   89.1    11    6.8   287     14.4   922.9    0.00     890    85.3
 127   13:40   90.0    10    6.1   334     12.6   922.8    0.00     873    85.6
 127   13:50   90.2    10    4.3   341     10.5   922.6    0.00     855    85.7
 127   14:00   90.9    10    0.3   298      2.6   922.5    0.00     837    85.7
 127   14:10   90.7    10    2.7   312      9.1   922.3    0.00     816    85.7
 127   14:20   91.5    10    0.0   306      0.1   922.1    0.00     793    85.5
 127   14:30   90.7    10    5.6   298     12.6   921.9    0.00     772    85.3
 127   14:40   91.1     9    7.0   337     13.7   921.8    0.00     747    85.2
 127   14:50   91.6     9    3.5   348     11.2   921.6    0.00     723    85.0
 127   15:00   91.3     9    6.5   320     14.2   921.5    0.00     699    84.8
 127   15:10   91.5     9    6.7   299     15.9   921.4    0.00     671    84.7
 127   15:20   90.8     8    6.1   281     10.8   921.3    0.00     642    84.7
 127   15:30   90.9     9    4.9   276     12.2   921.2    0.00     613    84.9
 127   15:40   90.4     9    6.0   280     10.0   921.2    0.00     581    85.2
 127   15:50   91.4     8    3.0   308      8.3   921.2    0.00     549    85.4
 127   16:00   92.0     8    3.2     8      8.2   921.2    0.00     515    85.7
 127   16:10   92.6     8    3.0   349      6.7   921.1    0.00     482    85.9
 127   16:20   93.2     8    1.6   332      4.0   921.1    0.00     450    86.2
 127   16:30   92.4     9    1.8   254      5.1   921.0    0.00     415    86.5
 127   16:40   93.1     8    0.1   318      0.1   921.0    0.00     381    86.7
 127   16:50   92.6     9    0.1   310      0.1   921.0    0.00     347    86.8
 127   17:00   92.2     9    0.1   308      0.1   920.9    0.00     313    87.0
 127   17:10   91.5     9    0.0   336      0.1   920.8    0.00     278    87.1
 127   17:20   91.1     9    0.1   320      0.1   920.6    0.00     245    87.2
 127   17:30   90.6     9    0.1   313      0.1   920.5    0.00     212    87.2
 127   17:40   90.3    10    0.1   330      0.1   920.4    0.00     179    87.1
 127   17:50   90.0    10    0.1   355      0.1   920.3    0.00     147    87.1
 127   18:00   90.0    10    0.1   355      0.1   920.2    0.00     117    87.0
 127   18:10   90.2    10    0.1   355      0.1   920.0    0.00      88    86.9
 127   18:20   89.5    10    0.6   355      2.1   919.9    0.00      61    86.8
 127   18:30   88.6    10    1.5   355      4.5   920.0    0.00      35    86.6
 127   18:40   86.4    12    1.3   198      4.0   919.9    0.00      11    86.5
 127   18:50   85.7    12    2.1   196      4.7   919.7    0.00       3    86.3
 127   19:00   85.5    12    2.8   181      5.8   919.6    0.00       1    86.0
 127   19:10   85.1    12    3.0   182      5.8   919.6    0.00       0    85.9
 127   19:20   84.7    12    2.6   175      4.8   919.6    0.00       0    85.6
 127   19:30   84.1    12    2.3   176      5.2   919.5    0.00       0    85.4
 127   19:40   83.7    12    2.8   148      4.2   919.5    0.00       0    85.1
 127   19:50   82.5    12    3.9   142      5.0   919.5    0.00       0    84.9
 127   20:00   81.6    13    4.3   139      5.9   919.5    0.00       0    84.7
 127   20:10   80.7    13    3.9   121      5.5   919.5    0.00       0    84.4
 127   20:20   80.1    13    5.7   112      8.3   919.6    0.00       0    84.2
 127   20:30   79.8    13    6.1   100      8.6   919.7    0.00       0    84.0
 127   20:40   79.6    13    6.5   104     11.0   919.8    0.00       0    83.8
 127   20:50   79.6    12    7.6   100     11.2   919.7    0.00       0    83.6
 127   21:00   79.2    13    7.4   102     10.0   919.7    0.00       0    83.4
 127   21:10   79.2    12    8.7   100     11.8   919.7    0.00       0    83.2
 127   21:20   78.9    13    9.3    95     12.1   919.7    0.00       0    83.0
 127   21:30   78.8    13    9.7    95     13.0   919.7    0.00       0    82.9
 127   21:40   78.8    13    5.8    98     12.4   919.7    0.00       0    82.7
 127   21:50   78.7    12    7.9    95     13.6   919.7    0.00       0    82.6
 127   22:00   78.4    12    4.1    93     13.7   919.7    0.00       0    82.5
 127   22:10   78.2    12    7.4    95     13.4   919.7    0.00       0    82.3
 127   22:20   78.2    13    9.8    97     13.6   919.7    0.00       0    82.2
 127   22:30   77.5    13    4.4   102     11.4   919.9    0.00       0    82.1
 127   22:40   75.9    15    0.0   221      0.1   920.1    0.00       0    81.9
 127   22:50   74.4    16    0.0   210      0.1   920.0    0.00       0    81.8
 127   23:00   73.7    16    0.1   181      1.3   919.8    0.00       0    81.7
 127   23:10   72.8    16    0.0     0      0.0   919.7    0.00       0    81.5
 127   23:20   73.0    16    0.2   164      1.0   919.5    0.00       0    81.4
 127   23:30   72.7    17    1.1   123      5.6   919.5    0.00       0    81.2
 127   23:40   74.3    15    3.7   110      5.6   919.5    0.00       0    81.1
 127   23:50   74.0    16    3.3   226      6.2   919.6    0.00       0    81.0
 128    0:00   69.0    20    1.7   285      6.4   919.7    0.00       0    80.8
 128    0:10   67.9    21    0.0   285      0.1   919.6    0.00       0    80.6
 128    0:20   68.0    21    0.4   262      4.1   919.5    0.00       0    80.5
 128    0:30   68.1    21    0.9   289      3.0   919.3    0.00       0    80.3
 128    0:40   67.5    21    0.6   267      2.0   919.2    0.00       0    80.2
 128    0:50   67.2    21    0.6   233      1.5   919.2    0.00       0    80.0
 128    1:00   67.3    20    1.0   104      2.4   919.0    0.00       0    79.8
 128    1:10   67.7    20    1.3   144      2.1   918.8    0.00       0    79.6
 128    1:20   67.4    20    0.4   150      1.9   918.7    0.00       0    79.5
 128    1:30   67.1    20    0.0   240      0.1   918.7    0.00       0    79.3
 128    1:40   66.5    22    0.1   297      0.1   918.8    0.00       0    79.2

Return to Pahrump, Nevada graphs page.


Western Regional Climate Center,wrcc@dri.edu